createdAt,value
2022-12-22T00:00:33.319Z,50.866791
2022-12-22T00:01:33.353Z,50.866722
2022-12-22T00:02:33.511Z,50.866673
2022-12-22T00:03:33.494Z,50.866680
2022-12-22T00:04:33.286Z,50.866657
2022-12-22T00:05:34.211Z,50.866543
2022-12-22T00:06:33.284Z,50.866493
2022-12-22T00:07:33.257Z,50.866608
2022-12-22T00:08:33.270Z,50.866657
2022-12-22T00:09:33.240Z,50.866726
2022-12-22T00:10:33.256Z,50.866783
2022-12-22T00:11:33.233Z,50.866783
2022-12-22T00:12:33.227Z,50.866753
2022-12-22T00:13:33.212Z,50.866707
2022-12-22T00:14:33.209Z,50.866714
2022-12-22T00:15:34.706Z,50.866684
2022-12-22T00:17:06.260Z,50.866692
2022-12-22T00:17:33.179Z,50.866684
2022-12-22T00:18:33.189Z,50.866680
2022-12-22T00:19:33.171Z,50.866692
2022-12-22T00:20:33.147Z,50.866711
2022-12-22T00:21:33.158Z,50.866695
2022-12-22T00:22:33.130Z,50.866776
2022-12-22T00:23:33.124Z,50.866684
2022-12-22T00:24:33.130Z,50.866638
2022-12-22T00:25:33.121Z,50.866661
2022-12-22T00:42:34.541Z,50.866634
2022-12-22T00:43:34.515Z,50.866829
2022-12-22T00:44:34.493Z,50.866711
2022-12-22T00:45:35.413Z,50.866611
2022-12-22T00:46:35.495Z,50.866722
2022-12-22T00:47:34.484Z,50.866596
2022-12-22T00:48:34.472Z,50.866646
2022-12-22T00:49:34.475Z,50.866661
2022-12-22T00:50:34.480Z,50.866669
2022-12-22T00:51:34.438Z,50.866722
2022-12-22T00:52:34.430Z,50.866657
2022-12-22T00:53:34.436Z,50.866695
2022-12-22T00:54:34.420Z,50.866676
2022-12-22T00:55:35.373Z,50.866653
2022-12-22T00:56:34.411Z,50.866699
2022-12-22T00:57:34.448Z,50.866638
2022-12-22T00:58:34.451Z,50.866810
2022-12-22T00:59:34.373Z,50.866669
2022-12-22T01:00:34.373Z,50.866657
2022-12-22T01:01:34.445Z,50.866596
2022-12-22T01:02:34.558Z,50.866627
2022-12-22T01:03:34.552Z,50.866570
2022-12-22T01:04:34.347Z,50.866615
2022-12-22T01:05:34.336Z,50.866611
2022-12-22T01:06:34.333Z,50.866638
2022-12-22T01:07:34.324Z,50.866627
2022-12-22T01:08:34.308Z,50.866711
2022-12-22T01:09:34.323Z,50.866623
2022-12-22T01:10:34.283Z,50.866726
2022-12-22T01:11:35.284Z,50.866692
2022-12-22T01:12:34.317Z,50.866734
2022-12-22T01:13:34.269Z,50.866726
2022-12-22T01:14:34.253Z,50.866669
2022-12-22T01:15:34.374Z,50.866589
2022-12-22T01:16:34.266Z,50.866528
2022-12-22T01:17:34.241Z,50.866550
2022-12-22T01:18:35.228Z,50.866287
2022-12-22T01:19:34.210Z,50.865997
2022-12-22T01:20:34.215Z,50.866192
2022-12-22T01:21:34.202Z,50.866196
2022-12-22T01:22:34.205Z,50.866440
2022-12-22T01:23:34.181Z,50.866478
2022-12-22T01:24:34.178Z,50.866596
2022-12-22T01:25:34.175Z,50.866623
2022-12-22T01:26:34.175Z,50.866692
2022-12-22T01:27:34.156Z,50.866669
2022-12-22T01:28:34.201Z,50.866699
2022-12-22T01:29:34.132Z,50.866920
2022-12-22T01:30:34.182Z,50.866928
2022-12-22T01:31:34.123Z,50.866936
2022-12-22T01:32:34.163Z,50.866707
2022-12-22T01:33:34.124Z,50.866653
2022-12-22T01:34:34.090Z,50.866707
2022-12-22T01:35:34.102Z,50.866840
2022-12-22T01:36:34.119Z,50.866817
2022-12-22T01:37:34.111Z,50.866844
2022-12-22T01:38:34.067Z,50.866802
2022-12-22T01:39:34.061Z,50.866726
2022-12-22T01:40:34.050Z,50.866619
2022-12-22T01:41:34.050Z,50.866726
2022-12-22T01:42:34.078Z,50.866859
2022-12-22T01:43:34.040Z,50.866856
2022-12-22T01:44:34.025Z,50.866772
2022-12-22T01:45:34.016Z,50.866879
2022-12-22T01:46:35.061Z,50.866783
2022-12-22T01:47:33.984Z,50.866760
2022-12-22T01:48:33.990Z,50.866783
2022-12-22T01:49:34.007Z,50.866814
2022-12-22T01:50:33.971Z,50.866817
2022-12-22T01:51:34.023Z,50.866772
2022-12-22T01:52:33.956Z,50.866791
2022-12-22T01:53:33.946Z,50.866795
2022-12-22T01:54:33.938Z,50.866829
2022-12-22T01:55:33.934Z,50.866844
2022-12-22T01:56:33.925Z,50.866867
2022-12-22T01:57:33.915Z,50.866852
2022-12-22T01:58:33.925Z,50.866802
2022-12-22T01:59:33.987Z,50.866798
2022-12-22T02:00:33.908Z,50.866791
2022-12-22T02:01:34.055Z,50.866859
2022-12-22T02:02:34.015Z,50.866901
2022-12-22T02:03:33.966Z,50.866753
2022-12-22T02:04:33.869Z,50.866829
2022-12-22T02:05:33.867Z,50.866821
2022-12-22T02:06:33.844Z,50.866749
2022-12-22T02:07:33.833Z,50.866695
2022-12-22T02:08:34.847Z,50.866676
2022-12-22T02:09:33.897Z,50.866913
2022-12-22T02:10:33.955Z,50.866871
2022-12-22T02:11:33.840Z,50.866791
2022-12-22T02:12:33.842Z,50.866821
2022-12-22T02:13:33.832Z,50.866863
2022-12-22T02:14:34.401Z,50.866844
2022-12-22T02:15:34.522Z,50.866726
2022-12-22T02:16:33.925Z,50.866776
2022-12-22T02:17:33.835Z,50.866886
2022-12-22T02:18:33.755Z,50.866848
2022-12-22T02:19:33.743Z,50.866821
2022-12-22T02:20:33.748Z,50.866844
2022-12-22T02:21:35.348Z,50.866947
2022-12-22T02:22:34.410Z,50.866901
2022-12-22T02:23:33.727Z,50.867004
2022-12-22T02:24:33.852Z,50.866985
2022-12-22T02:25:33.732Z,50.866901
2022-12-22T02:26:33.752Z,50.867012
2022-12-22T02:27:33.688Z,50.867012
2022-12-22T02:28:34.407Z,50.866962
2022-12-22T02:29:33.667Z,50.866894
2022-12-22T02:30:34.567Z,50.867043
2022-12-22T02:31:33.738Z,50.867519
2022-12-22T02:32:33.677Z,50.868462
2022-12-22T02:33:33.689Z,50.867676
2022-12-22T02:34:35.518Z,50.867039
2022-12-22T02:35:33.687Z,50.866718
2022-12-22T02:36:33.696Z,50.866734
2022-12-22T02:37:33.609Z,50.866745
2022-12-22T02:38:35.133Z,50.866772
2022-12-22T02:39:33.591Z,50.866745
2022-12-22T02:40:40.867Z,50.866802
2022-12-22T02:41:35.577Z,50.866833
2022-12-22T02:42:33.558Z,50.866821
2022-12-22T02:43:33.549Z,50.866779
2022-12-22T02:44:36.703Z,50.866749
2022-12-22T02:45:33.623Z,50.866718
2022-12-22T02:46:33.608Z,50.866772
2022-12-22T02:47:33.515Z,50.866741
2022-12-22T02:48:33.615Z,50.866768
2022-12-22T02:49:33.534Z,50.866791
2022-12-22T02:50:33.521Z,50.866795
2022-12-22T02:51:33.493Z,50.866734
2022-12-22T02:52:33.478Z,50.866795
2022-12-22T02:53:35.990Z,50.866867
2022-12-22T02:54:33.482Z,50.866894
2022-12-22T02:55:33.645Z,50.866920
2022-12-22T02:56:34.370Z,50.866859
2022-12-22T02:57:33.475Z,50.866760
2022-12-22T03:03:42.015Z,50.866726
2022-12-22T03:04:41.724Z,50.866806
2022-12-22T03:05:41.724Z,50.866817
2022-12-22T03:06:41.714Z,50.866726
2022-12-22T03:07:41.746Z,50.866646
2022-12-22T03:08:41.708Z,50.866684
2022-12-22T03:09:41.706Z,50.866814
2022-12-22T03:10:44.246Z,50.866795
2022-12-22T03:11:41.688Z,50.866692
2022-12-22T03:12:41.682Z,50.866756
2022-12-22T03:13:41.677Z,50.866749
2022-12-22T03:14:41.657Z,50.866688
2022-12-22T03:15:41.678Z,50.866756
2022-12-22T03:16:41.716Z,50.866951
2022-12-22T03:17:41.623Z,50.866730
2022-12-22T03:18:41.612Z,50.866707
2022-12-22T03:19:41.623Z,50.866734
2022-12-22T03:20:41.623Z,50.866684
2022-12-22T03:21:41.617Z,50.866806
2022-12-22T03:22:41.576Z,50.866695
2022-12-22T03:23:41.566Z,50.866711
2022-12-22T03:24:41.575Z,50.866676
2022-12-22T03:25:42.607Z,50.866508
2022-12-22T03:26:41.558Z,50.866539
2022-12-22T03:27:42.544Z,50.866646
2022-12-22T03:28:41.544Z,50.866631
2022-12-22T03:29:41.532Z,50.866699
2022-12-22T03:30:41.526Z,50.866699
2022-12-22T03:31:41.626Z,50.866570
2022-12-22T03:32:42.164Z,50.866611
2022-12-22T03:33:41.516Z,50.866554
2022-12-22T03:34:41.503Z,50.866665
2022-12-22T03:35:41.482Z,50.866508
2022-12-22T03:36:41.480Z,50.866386
2022-12-22T03:37:41.465Z,50.866585
2022-12-22T03:38:42.247Z,50.866604
2022-12-22T03:39:41.464Z,50.866570
2022-12-22T03:40:44.433Z,50.866543
2022-12-22T03:41:41.472Z,50.866501
2022-12-22T03:42:41.455Z,50.866505
2022-12-22T03:43:41.458Z,50.866550
2022-12-22T03:44:41.421Z,50.866631
2022-12-22T03:45:41.426Z,50.866337
2022-12-22T03:46:41.461Z,50.866570
2022-12-22T03:47:41.387Z,50.866657
2022-12-22T03:48:41.387Z,50.866657
2022-12-22T03:49:42.285Z,50.866634
2022-12-22T03:50:41.387Z,50.866730
2022-12-22T03:51:41.374Z,50.866821
2022-12-22T03:52:41.346Z,50.866634
2022-12-22T03:53:41.369Z,50.866776
2022-12-22T03:54:41.367Z,50.866619
2022-12-22T03:55:41.332Z,50.866535
2022-12-22T04:23:49.522Z,50.866772
2022-12-22T04:24:49.531Z,50.866825
2022-12-22T04:25:50.474Z,50.866726
2022-12-22T04:26:49.581Z,50.866768
2022-12-22T04:27:49.499Z,50.866737
2022-12-22T04:28:49.589Z,50.866665
2022-12-22T04:29:49.483Z,50.866615
2022-12-22T04:30:50.496Z,50.866749
2022-12-22T04:31:49.569Z,50.866707
2022-12-22T04:32:49.465Z,50.866718
2022-12-22T04:38:10.403Z,50.866768
2022-12-22T04:39:09.382Z,50.866619
2022-12-22T04:40:09.406Z,50.866714
2022-12-22T04:41:09.373Z,50.866798
2022-12-22T04:42:09.358Z,50.866886
2022-12-22T04:43:10.284Z,50.866856
2022-12-22T04:44:09.342Z,50.866726
2022-12-22T04:45:09.338Z,50.866707
2022-12-22T04:46:09.392Z,50.866791
2022-12-22T04:47:09.324Z,50.866795
2022-12-22T04:48:10.272Z,50.866642
2022-12-22T04:49:09.316Z,50.866676
2022-12-22T04:50:09.321Z,50.866856
2022-12-22T04:51:09.295Z,50.866901
2022-12-22T04:52:09.279Z,50.866898
2022-12-22T04:53:09.296Z,50.866898
2022-12-22T04:54:09.273Z,50.866829
2022-12-22T04:55:09.291Z,50.866798
2022-12-22T04:56:09.252Z,50.866814
2022-12-22T04:57:09.242Z,50.866833
2022-12-22T04:58:09.249Z,50.866821
2022-12-22T04:59:09.227Z,50.866867
2022-12-22T05:00:09.233Z,50.866821
2022-12-22T05:01:09.265Z,50.866787
2022-12-22T05:02:09.364Z,50.866787
2022-12-22T05:03:09.293Z,50.866779
2022-12-22T05:04:09.199Z,50.866756
2022-12-22T05:05:09.190Z,50.866718
2022-12-22T05:06:09.188Z,50.866707
2022-12-22T05:07:09.210Z,50.866722
2022-12-22T05:08:09.173Z,50.866707
2022-12-22T05:09:09.153Z,50.866730
2022-12-22T05:10:09.149Z,50.866734
2022-12-22T05:11:09.159Z,50.866810
2022-12-22T05:12:09.115Z,50.866795
2022-12-22T05:13:09.131Z,50.866745
2022-12-22T05:14:09.108Z,50.866745
2022-12-22T05:15:09.098Z,50.866753
2022-12-22T05:16:09.094Z,50.866776
2022-12-22T05:17:09.743Z,50.866764
2022-12-22T05:18:09.085Z,50.866772
2022-12-22T05:19:09.060Z,50.866768
2022-12-22T05:20:10.058Z,50.866783
2022-12-22T05:21:09.051Z,50.866745
2022-12-22T05:22:09.036Z,50.866768
2022-12-22T05:23:09.042Z,50.866764
2022-12-22T05:24:09.024Z,50.866726
2022-12-22T05:25:09.017Z,50.866749
2022-12-22T05:26:09.023Z,50.866760
2022-12-22T05:27:09.004Z,50.866856
2022-12-22T05:28:08.998Z,50.866795
2022-12-22T05:29:09.008Z,50.866856
2022-12-22T05:30:08.981Z,50.866837
2022-12-22T05:31:09.020Z,50.866783
2022-12-22T05:32:08.968Z,50.866783
2022-12-22T05:33:08.979Z,50.866817
2022-12-22T05:34:08.965Z,50.866825
2022-12-22T05:35:08.941Z,50.866753
2022-12-22T05:36:08.936Z,50.866791
2022-12-22T05:37:08.937Z,50.866856
2022-12-22T05:38:08.914Z,50.866795
2022-12-22T05:39:08.918Z,50.866810
2022-12-22T05:40:08.903Z,50.866798
2022-12-22T05:41:10.707Z,50.866756
2022-12-22T05:42:08.895Z,50.866680
2022-12-22T05:43:08.871Z,50.866692
2022-12-22T05:44:08.874Z,50.866692
2022-12-22T05:45:09.820Z,50.866711
2022-12-22T05:46:08.951Z,50.866741
2022-12-22T05:47:08.853Z,50.866760
2022-12-22T05:48:08.847Z,50.866711
2022-12-22T05:49:08.851Z,50.866642
2022-12-22T05:50:08.817Z,50.866634
2022-12-22T05:51:08.952Z,50.866714
2022-12-22T05:52:08.799Z,50.866661
2022-12-22T05:53:08.793Z,50.866692
2022-12-22T05:54:09.700Z,50.866737
2022-12-22T05:55:08.782Z,50.866810
2022-12-22T05:56:08.814Z,50.866802
2022-12-22T05:57:08.763Z,50.866856
2022-12-22T05:58:08.771Z,50.866829
2022-12-22T05:59:08.743Z,50.866848
2022-12-22T06:00:08.745Z,50.866783
2022-12-22T06:01:08.759Z,50.866745
2022-12-22T06:02:08.922Z,50.866810
2022-12-22T06:03:08.874Z,50.866825
2022-12-22T06:04:08.817Z,50.866795
2022-12-22T06:05:08.700Z,50.866825
2022-12-22T06:06:08.711Z,50.866753
2022-12-22T06:07:08.685Z,50.866779
2022-12-22T06:08:08.684Z,50.866737
2022-12-22T06:09:08.677Z,50.866783
2022-12-22T06:10:12.349Z,50.866756
2022-12-22T06:11:09.657Z,50.866756
2022-12-22T06:12:08.647Z,50.866734
2022-12-22T06:13:08.646Z,50.866764
2022-12-22T06:14:08.628Z,50.866798
2022-12-22T06:15:08.619Z,50.866779
2022-12-22T06:16:08.660Z,50.866776
2022-12-22T06:17:08.611Z,50.866833
2022-12-22T06:18:08.602Z,50.866859
2022-12-22T06:19:08.589Z,50.866859
2022-12-22T06:20:08.575Z,50.866814
2022-12-22T06:21:08.574Z,50.866795
2022-12-22T06:22:08.567Z,50.866756
2022-12-22T06:23:09.567Z,50.866753
2022-12-22T06:24:08.557Z,50.866776
2022-12-22T06:25:12.067Z,50.866772
2022-12-22T06:26:09.551Z,50.866798
2022-12-22T06:27:08.529Z,50.866783
2022-12-22T06:28:08.516Z,50.866787
2022-12-22T06:29:08.544Z,50.866760
2022-12-22T06:30:08.501Z,50.866764
2022-12-22T06:31:08.563Z,50.866776
2022-12-22T06:32:08.494Z,50.866791
2022-12-22T06:33:08.474Z,50.866737
2022-12-22T06:34:08.467Z,50.866772
2022-12-22T06:35:08.479Z,50.866787
2022-12-22T06:36:08.461Z,50.866707
2022-12-22T06:37:08.452Z,50.866646
2022-12-22T06:38:08.450Z,50.866707
2022-12-22T06:39:08.438Z,50.866684
2022-12-22T06:40:08.470Z,50.866676
2022-12-22T06:41:08.435Z,50.866665
2022-12-22T06:42:08.413Z,50.866604
2022-12-22T06:43:09.603Z,50.866634
2022-12-22T06:44:09.390Z,50.866699
2022-12-22T06:45:08.412Z,50.866692
2022-12-22T06:46:08.446Z,50.866673
2022-12-22T06:47:08.382Z,50.866680
2022-12-22T06:48:08.363Z,50.866684
2022-12-22T06:49:08.359Z,50.866669
2022-12-22T06:50:08.348Z,50.866703
2022-12-22T06:51:08.445Z,50.866703
2022-12-22T06:52:08.338Z,50.866714
2022-12-22T06:53:08.357Z,50.866779
2022-12-22T06:54:08.314Z,50.866776
2022-12-22T06:55:09.229Z,50.866734
2022-12-22T06:56:08.313Z,50.866764
2022-12-22T06:57:08.280Z,50.866676
2022-12-22T06:58:09.296Z,50.866745
2022-12-22T06:59:08.278Z,50.866669
2022-12-22T07:00:08.298Z,50.866737
2022-12-22T07:01:08.277Z,50.866745
2022-12-22T07:02:08.402Z,50.866753
2022-12-22T07:03:08.558Z,50.866734
2022-12-22T07:04:40.763Z,50.866714
2022-12-22T07:05:08.247Z,50.866699
2022-12-22T07:06:41.771Z,50.866753
2022-12-22T07:07:08.773Z,50.866699
2022-12-22T07:08:09.389Z,50.866699
2022-12-22T07:09:09.210Z,50.866730
2022-12-22T07:10:08.201Z,50.866772
2022-12-22T07:11:08.192Z,50.866741
2022-12-22T07:12:08.181Z,50.866714
2022-12-22T07:13:08.180Z,50.866722
2022-12-22T07:14:08.168Z,50.866737
2022-12-22T07:15:08.176Z,50.866722
2022-12-22T07:16:08.905Z,50.866714
2022-12-22T07:17:09.846Z,50.866714
2022-12-22T07:18:08.137Z,50.866714
2022-12-22T07:19:08.124Z,50.866695
2022-12-22T07:20:08.119Z,50.866711
2022-12-22T07:21:08.131Z,50.866684
2022-12-22T07:22:08.103Z,50.866714
2022-12-22T07:23:08.094Z,50.866692
2022-12-22T07:24:08.088Z,50.866688
2022-12-22T07:25:08.068Z,50.866581
2022-12-22T07:26:08.765Z,50.866756
2022-12-22T07:27:08.055Z,50.866783
2022-12-22T07:28:08.055Z,50.866695
2022-12-22T07:29:08.037Z,50.866650
2022-12-22T07:30:08.047Z,50.866714
2022-12-22T07:31:08.083Z,50.866718
2022-12-22T07:32:08.022Z,50.866646
2022-12-22T07:33:08.015Z,50.866730
2022-12-22T07:34:08.001Z,50.866699
2022-12-22T07:35:08.005Z,50.866714
2022-12-22T07:36:07.987Z,50.866772
2022-12-22T07:37:07.973Z,50.866798
2022-12-22T07:38:07.978Z,50.866821
2022-12-22T07:39:07.962Z,50.866814
2022-12-22T07:40:07.971Z,50.866806
2022-12-22T07:41:07.947Z,50.866852
2022-12-22T07:42:07.953Z,50.866890
2022-12-22T07:43:07.921Z,50.866840
2022-12-22T07:44:07.921Z,50.866837
2022-12-22T07:45:07.915Z,50.866852
2022-12-22T07:46:07.939Z,50.866837
2022-12-22T07:47:08.847Z,50.866810
2022-12-22T07:48:07.892Z,50.866787
2022-12-22T07:49:07.888Z,50.866863
2022-12-22T07:50:07.906Z,50.867245
2022-12-22T07:51:07.862Z,50.867294
2022-12-22T07:52:07.868Z,50.867222
2022-12-22T07:53:07.902Z,50.867283
2022-12-22T07:54:07.880Z,50.867233
2022-12-22T07:55:07.877Z,50.867184
2022-12-22T07:56:08.353Z,50.867252
2022-12-22T07:57:07.825Z,50.867275
2022-12-22T07:58:07.818Z,50.867176
2022-12-22T07:59:07.797Z,50.867260
2022-12-22T08:00:07.798Z,50.867256
2022-12-22T08:01:07.784Z,50.867310
2022-12-22T08:02:07.855Z,50.867256
2022-12-22T08:03:08.002Z,50.867290
2022-12-22T08:04:07.759Z,50.866978
2022-12-22T08:05:07.804Z,50.866863
2022-12-22T08:06:07.758Z,50.866920
2022-12-22T08:07:08.291Z,50.866955
2022-12-22T08:08:07.738Z,50.866974
2022-12-22T08:09:07.794Z,50.866936
2022-12-22T08:10:07.715Z,50.866814
2022-12-22T08:11:08.284Z,50.866791
2022-12-22T08:12:08.713Z,50.866928
2022-12-22T08:13:07.744Z,50.866871
2022-12-22T08:14:07.676Z,50.866913
2022-12-22T08:15:07.676Z,50.866898
2022-12-22T08:16:07.691Z,50.866882
2022-12-22T08:17:07.653Z,50.866924
2022-12-22T08:18:07.663Z,50.866955
2022-12-22T08:19:07.641Z,50.866928
2022-12-22T08:20:07.658Z,50.866913
2022-12-22T08:21:07.638Z,50.866970
2022-12-22T08:22:07.625Z,50.866848
2022-12-22T08:23:07.651Z,50.866844
2022-12-22T08:24:08.371Z,50.866924
2022-12-22T08:25:07.594Z,50.867012
2022-12-22T08:26:07.590Z,50.867004
2022-12-22T08:27:07.595Z,50.866943
2022-12-22T08:28:07.561Z,50.866936
2022-12-22T08:29:07.586Z,50.866985
2022-12-22T08:30:07.553Z,50.866894
2022-12-22T08:31:07.625Z,50.866909
2022-12-22T08:32:07.677Z,50.866840
2022-12-22T08:33:07.531Z,50.866837
2022-12-22T08:34:08.282Z,50.866833
2022-12-22T08:35:07.518Z,50.866901
2022-12-22T08:36:08.420Z,50.866909
2022-12-22T08:37:08.504Z,50.866936
2022-12-22T08:38:07.494Z,50.866867
2022-12-22T08:39:07.495Z,50.866936
2022-12-22T08:40:07.491Z,50.866905
2022-12-22T08:41:07.463Z,50.866932
2022-12-22T08:42:07.466Z,50.866924
2022-12-22T08:43:07.467Z,50.866867
2022-12-22T08:44:07.444Z,50.866924
2022-12-22T08:45:08.349Z,50.866917
2022-12-22T08:46:07.453Z,50.866863
2022-12-22T08:47:14.894Z,50.866875
2022-12-22T08:48:09.413Z,50.866909
2022-12-22T08:49:07.415Z,50.866905
2022-12-22T08:50:07.418Z,50.866905
2022-12-22T08:51:07.413Z,50.866909
2022-12-22T08:52:12.828Z,50.866909
2022-12-22T08:53:18.769Z,50.866936
2022-12-22T08:54:08.428Z,50.866917
2022-12-22T08:55:07.353Z,50.866913
2022-12-22T08:56:07.342Z,50.866928
2022-12-22T08:57:07.355Z,50.866917
2022-12-22T08:58:07.457Z,50.866890
2022-12-22T08:59:07.320Z,50.866894
2022-12-22T09:00:07.308Z,50.866875
2022-12-22T09:01:08.901Z,50.866837
2022-12-22T09:02:08.026Z,50.866829
2022-12-22T09:03:07.413Z,50.866840
2022-12-22T09:04:07.318Z,50.866909
2022-12-22T09:05:07.305Z,50.866886
2022-12-22T09:06:07.886Z,50.866867
2022-12-22T09:07:07.265Z,50.866810
2022-12-22T09:08:08.241Z,50.866833
2022-12-22T09:09:07.240Z,50.866745
2022-12-22T09:10:07.245Z,50.866840
2022-12-22T09:24:15.259Z,50.867104
2022-12-22T09:25:16.031Z,50.867062
2022-12-22T09:26:16.072Z,50.867081
2022-12-22T09:27:47.499Z,50.867161
2022-12-22T09:28:15.059Z,50.867085
2022-12-22T09:29:15.029Z,50.866985
2022-12-22T09:30:15.099Z,50.866928
2022-12-22T09:31:15.022Z,50.866966
2022-12-22T09:32:15.036Z,50.867001
2022-12-22T09:33:15.004Z,50.866947
2022-12-22T09:34:17.931Z,50.866974
2022-12-22T09:35:16.549Z,50.866940
2022-12-22T09:36:14.973Z,50.867004
2022-12-22T09:37:14.955Z,50.866962
2022-12-22T09:38:14.983Z,50.866852
2022-12-22T09:39:14.961Z,50.866772
2022-12-22T09:40:14.950Z,50.866749
2022-12-22T09:41:14.935Z,50.866791
2022-12-22T09:42:15.493Z,50.866825
2022-12-22T09:43:14.934Z,50.866806
2022-12-22T09:44:14.913Z,50.866791
2022-12-22T09:45:17.224Z,50.866779
2022-12-22T09:46:15.927Z,50.866734
2022-12-22T09:47:15.473Z,50.866779
2022-12-22T09:48:15.547Z,50.866806
2022-12-22T09:49:15.517Z,50.866772
2022-12-22T09:50:14.881Z,50.866772
2022-12-22T09:51:14.849Z,50.866749
2022-12-22T09:52:14.849Z,50.866798
2022-12-22T09:53:14.838Z,50.866760
2022-12-22T09:54:14.834Z,50.866821
2022-12-22T09:55:14.835Z,50.866898
2022-12-22T09:56:14.819Z,50.866829
2022-12-22T09:57:14.816Z,50.866779
2022-12-22T09:58:14.801Z,50.866764
2022-12-22T09:59:14.791Z,50.866764
2022-12-22T10:00:14.790Z,50.866764
2022-12-22T10:01:14.844Z,50.866753
2022-12-22T10:02:14.829Z,50.866726
2022-12-22T10:03:15.523Z,50.866798
2022-12-22T10:04:14.749Z,50.866844
2022-12-22T10:05:14.735Z,50.866776
2022-12-22T10:06:14.738Z,50.866745
2022-12-22T10:07:14.722Z,50.866737
2022-12-22T10:08:14.730Z,50.866783
2022-12-22T10:09:44.055Z,50.866764
2022-12-22T10:10:16.695Z,50.866699
2022-12-22T10:11:15.508Z,50.866722
2022-12-22T10:12:14.696Z,50.866688
2022-12-22T10:13:14.672Z,50.866669
2022-12-22T10:14:14.680Z,50.866737
2022-12-22T10:15:21.509Z,50.866817
2022-12-22T10:16:16.688Z,50.866837
2022-12-22T10:17:14.643Z,50.866840
2022-12-22T10:18:14.639Z,50.866909
2022-12-22T10:19:14.659Z,50.866913
2022-12-22T10:20:14.644Z,50.866825
2022-12-22T10:21:14.604Z,50.866859
2022-12-22T10:22:15.600Z,50.866817
2022-12-22T10:23:14.783Z,50.866734
2022-12-22T10:24:14.586Z,50.866829
2022-12-22T10:25:14.576Z,50.867191
2022-12-22T10:26:28.135Z,50.867481
2022-12-22T10:27:16.572Z,50.867733
2022-12-22T10:28:14.563Z,50.867443
2022-12-22T10:29:15.551Z,50.867367
2022-12-22T10:30:14.541Z,50.867546
2022-12-22T10:31:14.549Z,50.867226
2022-12-22T10:32:14.707Z,50.867123
2022-12-22T10:33:14.522Z,50.867100
2022-12-22T10:34:14.506Z,50.867199
2022-12-22T10:35:14.514Z,50.867119
2022-12-22T10:36:14.762Z,50.867058
2022-12-22T10:37:14.487Z,50.867050
2022-12-22T10:38:21.328Z,50.867023
2022-12-22T10:39:15.478Z,50.866936
2022-12-22T10:40:14.495Z,50.866940
2022-12-22T10:41:14.989Z,50.867001
2022-12-22T10:42:14.545Z,50.866989
2022-12-22T10:43:14.475Z,50.867069
2022-12-22T10:44:14.450Z,50.867020
2022-12-22T10:45:14.442Z,50.866962
2022-12-22T10:46:15.113Z,50.866856
2022-12-22T10:47:17.628Z,50.866924
2022-12-22T10:48:15.411Z,50.866978
2022-12-22T10:49:14.428Z,50.866920
2022-12-22T10:50:14.454Z,50.867043
2022-12-22T10:51:14.456Z,50.867008
2022-12-22T10:52:14.403Z,50.866879
2022-12-22T10:53:14.404Z,50.866924
2022-12-22T10:54:14.428Z,50.867031
2022-12-22T10:55:14.394Z,50.866795
2022-12-22T10:56:15.058Z,50.866951
2022-12-22T10:57:17.092Z,50.866955
2022-12-22T10:58:14.330Z,50.866829
2022-12-22T10:59:14.335Z,50.866890
2022-12-22T11:00:14.308Z,50.866859
2022-12-22T11:01:14.374Z,50.866810
2022-12-22T11:02:14.499Z,50.866962
2022-12-22T11:03:19.156Z,50.866974
2022-12-22T11:04:16.373Z,50.866856
2022-12-22T11:05:14.276Z,50.866699
2022-12-22T11:06:14.271Z,50.866707
2022-12-22T11:07:15.068Z,50.866776
2022-12-22T11:08:14.283Z,50.866730
2022-12-22T11:09:32.580Z,50.866737
2022-12-22T11:10:16.225Z,50.866768
2022-12-22T11:11:14.318Z,50.866840
2022-12-22T11:12:14.219Z,50.866837
2022-12-22T11:13:14.210Z,50.866745
2022-12-22T11:14:14.212Z,50.866722
2022-12-22T11:15:18.508Z,50.866726
2022-12-22T11:16:16.243Z,50.866726
2022-12-22T11:17:14.255Z,50.866879
2022-12-22T11:18:15.172Z,50.866798
2022-12-22T11:19:14.233Z,50.866798
2022-12-22T11:20:14.163Z,50.866806
2022-12-22T11:21:18.656Z,50.866802
2022-12-22T11:22:18.245Z,50.866795
2022-12-22T11:23:18.665Z,50.866821
2022-12-22T11:24:19.014Z,50.866837
2022-12-22T11:25:14.134Z,50.866894
2022-12-22T11:26:14.123Z,50.866871
2022-12-22T11:27:14.111Z,50.866821
2022-12-22T11:28:14.100Z,50.866802
2022-12-22T11:29:14.087Z,50.866817
2022-12-22T11:30:15.107Z,50.866741
2022-12-22T11:31:14.265Z,50.866768
2022-12-22T11:32:14.073Z,50.866875
2022-12-22T11:33:14.063Z,50.866825
2022-12-22T11:34:20.698Z,50.866756
2022-12-22T11:35:16.057Z,50.866726
2022-12-22T11:36:14.041Z,50.866695
2022-12-22T11:37:14.058Z,50.866760
2022-12-22T11:38:14.050Z,50.866730
2022-12-22T11:39:14.029Z,50.866734
2022-12-22T11:40:14.040Z,50.866718
2022-12-22T11:41:14.000Z,50.866692
2022-12-22T11:42:14.568Z,50.866699
2022-12-22T11:43:14.018Z,50.866745
2022-12-22T11:44:13.982Z,50.866730
2022-12-22T11:45:13.959Z,50.866787
2022-12-22T11:46:14.604Z,50.866760
2022-12-22T11:47:13.943Z,50.866726
2022-12-22T11:48:14.958Z,50.866817
2022-12-22T11:49:14.550Z,50.866779
2022-12-22T11:51:01.836Z,50.866703
2022-12-22T11:51:14.924Z,50.866844
2022-12-22T11:52:13.909Z,50.866909
2022-12-22T11:53:13.949Z,50.866859
2022-12-22T11:54:13.899Z,50.866753
2022-12-22T11:55:13.899Z,50.866684
2022-12-22T11:56:13.899Z,50.866722
2022-12-22T11:57:13.890Z,50.866779
2022-12-22T11:58:13.870Z,50.866753
2022-12-22T11:59:14.001Z,50.866745
2022-12-22T12:00:13.932Z,50.866745
2022-12-22T12:01:46.588Z,50.866714
2022-12-22T12:02:14.830Z,50.866711
2022-12-22T12:03:13.898Z,50.866726
2022-12-22T12:04:13.875Z,50.866703
2022-12-22T12:05:13.810Z,50.866703
2022-12-22T12:06:13.797Z,50.866714
2022-12-22T12:07:13.801Z,50.866779
2022-12-22T12:08:14.893Z,50.866833
2022-12-22T12:09:13.793Z,50.866875
2022-12-22T12:10:13.825Z,50.866840
2022-12-22T12:11:14.569Z,50.866798
2022-12-22T12:12:13.760Z,50.866879
2022-12-22T12:13:16.771Z,50.866920
2022-12-22T12:14:15.600Z,50.866837
2022-12-22T12:15:14.681Z,50.866806
2022-12-22T12:16:15.662Z,50.866783
2022-12-22T12:17:14.716Z,50.866795
2022-12-22T12:18:14.702Z,50.866772
2022-12-22T12:19:14.632Z,50.866802
2022-12-22T12:20:15.613Z,50.866867
2022-12-22T12:21:13.682Z,50.866802
2022-12-22T12:22:13.689Z,50.866741
2022-12-22T12:23:13.678Z,50.866749
2022-12-22T12:24:13.662Z,50.866772
2022-12-22T12:25:14.558Z,50.866787
2022-12-22T12:26:13.643Z,50.866749
2022-12-22T12:27:13.647Z,50.866734
2022-12-22T12:28:13.639Z,50.866711
2022-12-22T12:29:13.627Z,50.866753
2022-12-22T12:30:37.388Z,50.866745